Logo AVAMET
Benvolgut visitant, si us plau, ingressa Recuperar contrasenya
AVAMET paisatges

Finestrat Ajuntament

Dades diàries. Acumulats / Últims 30 dies disponibles

Data Temperatura (°C) Humitat rel. (%) Pressió rel. (hPa) Vent (km/h) Precipitació
Mínima Mitjana Màxima Amplitud
tèrmica
Mínima Mitjana Màxima Mínima Mitjana Màxima Predom. Mitjana Ràfega
màxima
Total
(mm)
Índex-n
Mínima Mitjana Màxima Mínima Mitjana Màxima n
0 a 1
P0 max
mm 5'
Dades mensuals acumulades fins l'últim dia disponible
12/2020 9,7 9,7 9,7 13,1 17,5 17,5 17,5 7,8 70 81 89 1.014 1.019 1.023   5,5 22,5 0,0
Dades anuals acumulades fins l'últim dia disponible
2020 4,5 15,3 26,1 18,9 9,7 22,8 36,2 31,7 13 65 95 991 1.017 1.034   7,0 138,4 313,4
Últims 30 dies disponibles
01-12-2020 9,7     13,1     17,5 7,8 70 81 89 1.014 1.019 1.023 SO 5,5 22,5 0,0
30-11-2020 9,2     13,0     18,3 9,1 64 81 89 1.019 1.021 1.023 OSO 4,4 24,1 0,0
29-11-2020 10,6     13,8     17,9 7,3 59 72 88 1.010 1.015 1.019 NW 6,3 22,5 0,0
28-11-2020 11,2     13,1     15,3 4,1 66 76 83 1.002 1.005 1.010 NW 5,2 33,8 0,3
27-11-2020 11,4     14,8     17,1 5,7 61 79 90 1.004 1.006 1.011 ENE 10,9 38,6 13,0
26-11-2020 13,0     16,1     18,7 5,7 55 72 85 1.011 1.012 1.015 NE 11,3 49,9 0,0
25-11-2020 8,3     12,8     16,8 8,5 64 79 87 1.014 1.017 1.020 WNW 5,6 27,4 0,0
24-11-2020 8,3     12,0     16,1 7,8 64 78 85 1.020 1.023 1.027 W 10,2 32,2 0,0
23-11-2020 7,4     11,2     16,2 8,8 60 77 87 1.027 1.028 1.029 NW 6,1 22,5 0,0
22-11-2020 7,2     11,4     16,7 9,5 53 71 83 1.026 1.028 1.029 NW 5,5 22,5 0,0
21-11-2020 9,1     12,8     17,7 8,6 56 68 77 1.026 1.027 1.029 NNW 5,0 24,1 0,0
20-11-2020 11,9     14,9     19,8 7,9 53 69 81 1.024 1.027 1.029 N 3,7 20,9 0,0
19-11-2020 13,8     16,5     20,8 7,0 61 80 90 1.027 1.028 1.030 WNW 3,6 24,1 0,0
18-11-2020 13,2     16,3     20,4 7,2 71 86 91 1.026 1.027 1.028 WNW 3,8 22,5 0,0
17-11-2020 14,2     16,7     19,1 4,9 76 84 91 1.024 1.025 1.027 WNW 4,9 20,9 0,0
16-11-2020 16,7     20,7     24,9 8,2 45 62 76 1.018 1.020 1.025 NW 8,5 37,0 0,0
15-11-2020 14,5     18,4     22,6 8,1 52 71 90 1.019 1.020 1.021 WNW 5,6 22,5 0,0
14-11-2020 13,4     16,1     18,7 5,3 75 84 91 1.019 1.020 1.022 NW 2,1 16,1 0,0
13-11-2020 14,8     17,2     21,3 6,5 58 72 81 1.018 1.019 1.021 NW 5,1 20,9 0,0
12-11-2020 11,3     15,5     20,3 9,0 55 66 78 1.020 1.022 1.024 NNW 6,1 27,4 0,0
11-11-2020 10,9     14,6     19,6 8,7 55 71 83 1.023 1.025 1.026 NW 6,3 24,1 0,0
10-11-2020 12,9     16,5     19,9 7,0 68 75 86 1.022 1.024 1.026 NNE 3,3 20,9 0,0
09-11-2020 13,0     15,9     20,6 7,6 58 72 82 1.020 1.021 1.023 NW 4,0 17,7 0,0
08-11-2020 11,9     16,2     21,3 9,4 50 68 83 1.021 1.022 1.024 NW 5,1 20,9 0,0
07-11-2020 16,0     19,2     24,1 8,1 46 70 89 1.014 1.018 1.023 ENE 7,2 49,9 4,3 0,18 0,50
06-11-2020 17,9     22,5     25,2 7,3 35 51 69 1.015 1.017 1.019 NE 10,9 41,8 0,0
05-11-2020 17,1     18,6     21,5 4,4 59 79 89 1.018 1.019 1.021 NE 17,4 54,7 0,5
04-11-2020 13,9     17,3     20,3 6,4 59 72 85 1.016 1.018 1.023 N 7,6 35,4 0,0
03-11-2020 13,3     16,9     20,5 7,2 55 81 92 1.021 1.022 1.024 NE 4,2 20,9 0,0
02-11-2020 12,9     16,5     20,6 7,7 61 84 93 1.020 1.022 1.023 SE 3,0 19,3 0,3
Últims 13 mesos disponibles
10/2020 10,7 14,6 19,6 18,5 18,3 22,6 28,1 17,4 40 58 81 998 1.016 1.025 W 7,7 74,0 0,6
09/2020 14,2 18,8 23,6 22,6 22,3 26,5 30,4 16,2 38 62 78 1.010 1.016 1.023 WNW 7,4 74,0 4,0
08/2020 16,4 22,4 25,8 26,0 24,4 30,1 36,2 19,8 43 65 86 1.002 1.013 1.018 WNW 6,1 54,7 7,9
07/2020 19,6 22,1 26,1 25,9 25,3 30,1 35,3 15,7 33 61 86 1.011 1.015 1.020 NE 6,5 51,5 1,0
06/2020 14,3 18,6 22,1 22,3 21,5 26,1 33,0 18,7 41 66 82 1.004 1.013 1.020 WNW 6,7 53,1 14,2
05/2020 12,7 17,0 20,1 20,7 18,6 24,8 29,3 16,6 42 58 85 1.005 1.015 1.024 NW 7,1 53,1 25,2
04/2020 7,7 12,1 16,7 15,2 13,7 19,0 24,8 17,1 42 70 90 1.004 1.015 1.025 S 6,1 61,2 32,5
03/2020 7,7 11,4 15,5 14,3 9,7 17,7 23,6 15,9 41 64 85 1.007 1.016 1.024 SO 9,3 94,9 42,8
02/2020 5,7 10,6 15,5 14,3 13,7 18,5 26,1 20,4 28 67 92 1.014 1.025 1.033 S 5,7 45,1 2,2
01/2020 4,5 8,0 14,4 11,4 12,4 15,2 21,2 16,7 49 70 84 1.014 1.024 1.032 OSO 8,3 138,4 164,6
12/2019 6,7 11,0 15,4 13,8 13,6 17,5 23,8 17,1 41 67 84 1.005 1.018 1.032 OSO 8,3 98,1 64,0
11/2019 6,2 12,3 20,2 15,1 13,8 18,4 25,7 19,5 41 55 83 999 1.010 1.018 OSO 12,4 91,7 12,5
10/2019 10,9 16,0 20,7 19,5 16,7 23,5 28,8 17,9 43 68 85 1.008 1.016 1.021 SO 6,2 80,4 40,9
Tots els anys disponibles
2019 3,6 14,4 27,7 17,8 9,1 21,6 36,6 33,0 27 62 87 996 1.016 1.032 SSO 7,9 98,1 478,3
Temperatura (°C)
Humitat relativa (%)
Velocitat del vent i ràfega màxima (km/h)
Direcció del vent (°)
Pressió (hPa)
Precipitació (mm)
Nota sobre les dades: s'avisa a l'usuari de la provisionalitat i no oficialitat d'aquestes dades
Logo AVAMET blanc
Web allotjada a Sollutia
Llicència de Creative CommonsLa web d'AVAMET i els seus continguts estan subjectes a una llicència de
Reconeixement - No Comercial - Compartir igual
Avís legal - Política de privacitat - Política de cookies
NOVES ESTACIONS: València - l'Olivereta (Soci), Xixona - Carrasqueta/Bugaia (Soci), l'Alcúdia de Crespins/Canals - la Muntanyeta (Soci), Utiel - est (Soci), Xàbia - Cansalades (Soci), Alginet (Soci), Quatretondeta (Ajuntament Soci) Enguera - Benali (Soci/ADENE), la Vall d'Alba - sud (Ajuntament Soci), El Fondó dels Frares (Estació pròpia d'AVAMET nº34) - - -